createdAt,value
2022-10-03T00:01:32.783Z,12.50
2022-10-03T00:04:15.262Z,12.48
2022-10-03T00:06:52.374Z,12.45
2022-10-03T00:09:36.776Z,12.41
2022-10-03T00:12:15.445Z,12.39
2022-10-03T00:14:54.751Z,12.37
2022-10-03T00:17:32.602Z,12.36
2022-10-03T00:20:16.098Z,12.38
2022-10-03T00:22:54.789Z,12.37
2022-10-03T00:25:35.024Z,12.37
2022-10-03T00:28:19.765Z,12.41
2022-10-03T00:31:07.481Z,12.41
2022-10-03T00:33:45.165Z,12.44
2022-10-03T00:36:21.511Z,12.41
2022-10-03T00:39:08.360Z,12.40
2022-10-03T00:41:55.453Z,12.44
2022-10-03T00:44:55.775Z,12.49
2022-10-03T00:47:47.833Z,12.45
2022-10-03T00:50:47.750Z,12.43
2022-10-03T00:53:34.335Z,12.47
2022-10-03T00:56:16.968Z,12.46
2022-10-03T00:59:09.540Z,12.46
2022-10-03T01:01:45.477Z,12.45
2022-10-03T01:04:46.573Z,12.44
2022-10-03T01:07:33.247Z,12.40
2022-10-03T01:10:20.115Z,12.39
2022-10-03T01:13:04.888Z,12.39
2022-10-03T01:15:45.079Z,12.40
2022-10-03T01:18:27.432Z,12.48
2022-10-03T01:21:04.579Z,12.57
2022-10-03T01:23:55.140Z,12.61
2022-10-03T01:26:50.498Z,12.67
2022-10-03T01:29:43.777Z,12.72
2022-10-03T01:32:18.780Z,12.75
2022-10-03T01:34:55.193Z,12.78
2022-10-03T01:37:29.804Z,12.82
2022-10-03T01:40:04.688Z,12.83
2022-10-03T01:42:41.002Z,12.87
2022-10-03T01:45:17.937Z,12.91
2022-10-03T01:47:51.562Z,12.93
2022-10-03T01:50:29.452Z,12.94
2022-10-03T01:53:05.171Z,12.95
2022-10-03T01:55:42.676Z,12.95
2022-10-03T01:58:20.549Z,12.96
2022-10-03T02:00:59.210Z,12.98
2022-10-03T02:03:32.176Z,12.96
2022-10-03T02:06:10.961Z,12.92
2022-10-03T02:08:52.955Z,12.87
2022-10-03T02:11:33.370Z,12.89
2022-10-03T02:14:23.381Z,12.91
2022-10-03T02:17:00.397Z,12.95
2022-10-03T02:19:33.140Z,12.90
2022-10-03T02:22:02.984Z,12.79
2022-10-03T02:24:44.766Z,12.75
2022-10-03T02:27:38.833Z,12.66
2022-10-03T02:30:19.879Z,12.58
2022-10-03T02:33:18.727Z,12.52
2022-10-03T02:36:21.055Z,12.49
2022-10-03T02:39:33.759Z,12.48
2022-10-03T02:42:32.656Z,12.51
2022-10-03T02:45:42.659Z,12.54
2022-10-03T02:48:49.952Z,12.54
2022-10-03T02:51:44.321Z,12.53
2022-10-03T02:54:45.946Z,12.52
2022-10-03T02:57:42.467Z,12.44
2022-10-03T03:00:15.162Z,12.39
2022-10-03T03:03:12.138Z,12.39
2022-10-03T03:06:25.549Z,12.31
2022-10-03T03:09:10.519Z,12.30
2022-10-03T03:12:40.451Z,12.28
2022-10-03T03:15:44.998Z,12.25
2022-10-03T03:18:23.669Z,12.18
2022-10-03T03:21:07.122Z,12.18
2022-10-03T03:24:12.623Z,12.21
2022-10-03T03:27:05.245Z,12.17
2022-10-03T03:29:43.906Z,12.20
2022-10-03T03:32:20.273Z,12.22
2022-10-03T03:35:00.569Z,12.25
2022-10-03T03:37:38.174Z,12.27
2022-10-03T03:40:19.941Z,12.22
2022-10-03T03:43:16.393Z,12.14
2022-10-03T03:45:56.629Z,12.12
2022-10-03T03:48:42.685Z,12.08
2022-10-03T03:51:23.514Z,12.09
2022-10-03T03:54:12.284Z,12.13
2022-10-03T03:57:01.800Z,12.14
2022-10-03T03:59:48.101Z,12.21
2022-10-03T04:02:32.153Z,12.29
2022-10-03T04:05:14.078Z,12.32
2022-10-03T04:07:53.663Z,12.25
2022-10-03T04:10:38.340Z,12.25
2022-10-03T04:13:32.077Z,12.30
2022-10-03T04:16:41.818Z,12.34
2022-10-03T04:19:17.417Z,12.36
2022-10-03T04:22:05.298Z,12.36
2022-10-03T04:24:55.166Z,12.34
2022-10-03T04:27:39.413Z,12.33
2022-10-03T04:30:14.681Z,12.26
2022-10-03T04:33:05.527Z,12.21
2022-10-03T04:36:13.269Z,12.14
2022-10-03T04:38:51.054Z,12.13
2022-10-03T04:41:30.006Z,12.07
2022-10-03T04:44:12.003Z,12.01
2022-10-03T04:46:49.283Z,11.98
2022-10-03T04:49:24.343Z,12.02
2022-10-03T04:51:59.068Z,12.01
2022-10-03T04:54:40.988Z,12.02
2022-10-03T04:57:23.982Z,12.01
2022-10-03T05:00:00.341Z,12.05
2022-10-03T05:02:49.081Z,12.09
2022-10-03T05:05:51.545Z,12.11
2022-10-03T05:08:36.504Z,12.06
2022-10-03T05:11:21.639Z,12.05
2022-10-03T05:14:01.002Z,12.08
2022-10-03T05:16:40.388Z,12.09
2022-10-03T05:19:51.609Z,12.10
2022-10-03T05:22:33.011Z,12.07
2022-10-03T05:25:17.803Z,12.07
2022-10-03T05:27:53.195Z,12.04
2022-10-03T05:30:37.463Z,12.05
2022-10-03T05:33:14.357Z,12.02
2022-10-03T05:35:56.722Z,12.04
2022-10-03T05:39:03.968Z,12.09
2022-10-03T05:41:35.630Z,12.11
2022-10-03T05:44:10.872Z,12.14
2022-10-03T05:46:59.055Z,12.07
2022-10-03T05:49:50.777Z,12.07
2022-10-03T05:52:48.656Z,12.05
2022-10-03T05:55:44.741Z,12.07
2022-10-03T05:58:32.561Z,12.05
2022-10-03T06:01:27.602Z,11.95
2022-10-03T06:04:15.837Z,11.90
2022-10-03T06:06:53.288Z,11.85
2022-10-03T06:09:43.776Z,11.84
2022-10-03T06:12:18.661Z,11.87
2022-10-03T06:15:21.144Z,11.92
2022-10-03T06:17:58.449Z,12.01
2022-10-03T06:20:56.705Z,12.09
2022-10-03T06:24:06.583Z,12.11
2022-10-03T06:27:07.414Z,12.15
2022-10-03T06:30:16.359Z,12.18
2022-10-03T06:33:19.438Z,12.17
2022-10-03T06:36:23.103Z,12.20
2022-10-03T06:39:55.534Z,12.19
2022-10-03T06:43:11.314Z,12.18
2022-10-03T06:46:16.086Z,12.15
2022-10-03T06:49:23.039Z,12.15
2022-10-03T06:52:07.335Z,12.21
2022-10-03T06:55:21.666Z,12.32
2022-10-03T06:58:17.261Z,12.33
2022-10-03T07:01:02.391Z,12.32
2022-10-03T07:04:06.654Z,12.39
2022-10-03T07:07:03.191Z,12.47
2022-10-03T07:10:17.165Z,12.58
2022-10-03T07:13:15.353Z,12.66
2022-10-03T07:16:24.091Z,12.71
2022-10-03T07:19:24.128Z,12.72
2022-10-03T07:22:23.611Z,12.69
2022-10-03T07:25:26.795Z,12.74
2022-10-03T07:28:22.853Z,12.79
2022-10-03T07:31:03.931Z,12.74
2022-10-03T07:33:51.072Z,12.79
2022-10-03T07:37:13.576Z,12.87
2022-10-03T07:40:14.592Z,12.93
2022-10-03T07:43:10.170Z,12.94
2022-10-03T07:45:43.021Z,12.95
2022-10-03T07:48:43.516Z,13.02
2022-10-03T07:51:19.995Z,12.99
2022-10-03T07:54:42.238Z,13.01
2022-10-03T07:57:31.956Z,13.08
2022-10-03T08:00:27.305Z,13.14
2022-10-03T08:03:37.376Z,13.18
2022-10-03T08:06:26.447Z,13.22
2022-10-03T08:09:35.590Z,13.19
2022-10-03T08:12:32.617Z,13.18
2022-10-03T08:15:11.238Z,13.22
2022-10-03T08:18:17.640Z,13.22
2022-10-03T08:20:56.444Z,13.22
2022-10-03T08:23:50.649Z,13.24
2022-10-03T08:26:36.743Z,13.26
2022-10-03T08:29:26.653Z,13.25
2022-10-03T08:32:39.901Z,13.32
2022-10-03T08:35:39.716Z,13.42
2022-10-03T08:38:46.174Z,13.59
2022-10-03T08:41:58.978Z,13.76
2022-10-03T08:45:08.609Z,13.83
2022-10-03T08:48:08.770Z,13.87
2022-10-03T08:50:50.887Z,13.83
2022-10-03T08:54:00.537Z,13.84
2022-10-03T08:56:46.070Z,13.94
2022-10-03T08:59:56.494Z,14.02
2022-10-03T09:07:05.142Z,14.06
2022-10-03T09:10:16.196Z,13.95
2022-10-03T09:13:26.659Z,13.82
2022-10-03T09:16:29.161Z,13.75
2022-10-03T09:19:20.378Z,13.75
2022-10-03T09:22:27.798Z,13.74
2022-10-03T09:25:15.713Z,13.75
2022-10-03T09:28:25.540Z,13.85
2022-10-03T09:31:06.309Z,13.98
2022-10-03T09:34:03.976Z,14.13
2022-10-03T09:37:04.540Z,14.25
2022-10-03T09:40:11.644Z,14.46
2022-10-03T09:43:14.880Z,14.57
2022-10-03T09:46:12.013Z,14.73
2022-10-03T09:49:09.286Z,14.77
2022-10-03T09:51:53.990Z,14.75
2022-10-03T09:54:55.432Z,14.73
2022-10-03T09:57:47.041Z,14.70
2022-10-03T10:00:22.354Z,14.71
2022-10-03T10:03:23.803Z,14.72
2022-10-03T10:06:24.988Z,14.66
2022-10-03T10:09:40.816Z,14.55
2022-10-03T10:12:55.636Z,14.48
2022-10-03T10:16:08.440Z,14.47
2022-10-03T10:19:10.798Z,14.59
2022-10-03T10:21:59.464Z,14.81
2022-10-03T10:25:09.317Z,15.03
2022-10-03T10:28:05.936Z,15.26
2022-10-03T10:31:03.708Z,15.41
2022-10-03T10:34:16.426Z,15.43
2022-10-03T10:37:19.217Z,15.44
2022-10-03T10:40:32.923Z,15.28
2022-10-03T10:43:41.914Z,15.44
2022-10-03T10:46:49.016Z,15.72
2022-10-03T10:50:08.049Z,15.95
2022-10-03T10:53:09.913Z,16.02
2022-10-03T10:56:13.321Z,16.05
2022-10-03T10:59:32.471Z,15.97
2022-10-03T11:02:42.705Z,15.86
2022-10-03T11:05:47.634Z,15.72
2022-10-03T11:08:51.592Z,15.54
2022-10-03T11:12:09.876Z,15.43
2022-10-03T11:15:11.510Z,15.37
2022-10-03T11:18:05.141Z,15.32
2022-10-03T11:21:07.036Z,15.25
2022-10-03T11:24:15.306Z,15.29
2022-10-03T11:27:28.587Z,15.41
2022-10-03T11:30:19.408Z,15.48
2022-10-03T11:33:26.628Z,15.51
2022-10-03T11:36:28.916Z,15.48
2022-10-03T11:39:05.717Z,15.47
2022-10-03T11:41:47.733Z,15.54
2022-10-03T11:44:23.446Z,15.53
2022-10-03T11:47:13.697Z,15.47
2022-10-03T11:50:01.704Z,15.45
2022-10-03T11:52:34.299Z,15.55
2022-10-03T11:55:26.515Z,15.81
2022-10-03T11:58:14.478Z,16.11
2022-10-03T12:00:47.686Z,16.32
2022-10-03T12:03:27.014Z,16.30
2022-10-03T12:06:13.689Z,16.10
2022-10-03T12:08:56.243Z,15.84
2022-10-03T12:11:28.383Z,15.67
2022-10-03T12:14:17.612Z,15.63
2022-10-03T12:17:07.417Z,15.81
2022-10-03T12:19:46.926Z,16.00
2022-10-03T12:22:30.642Z,16.22
2022-10-03T12:25:07.126Z,16.38
2022-10-03T12:27:51.829Z,16.45
2022-10-03T12:30:21.896Z,16.45
2022-10-03T12:33:08.205Z,16.45
2022-10-03T12:35:46.118Z,16.33
2022-10-03T12:38:25.833Z,16.36
2022-10-03T12:41:06.868Z,16.54
2022-10-03T12:43:49.075Z,16.80
2022-10-03T12:46:27.141Z,16.96
2022-10-03T12:49:01.180Z,17.16
2022-10-03T12:51:45.032Z,17.22
2022-10-03T12:54:26.855Z,17.26
2022-10-03T12:57:20.013Z,17.24
2022-10-03T12:59:55.524Z,17.06
2022-10-03T13:02:33.457Z,16.93
2022-10-03T13:05:33.253Z,16.97
2022-10-03T13:08:07.644Z,17.11
2022-10-03T13:10:42.826Z,17.25
2022-10-03T13:13:28.890Z,17.43
2022-10-03T13:16:14.548Z,17.60
2022-10-03T13:18:57.251Z,17.66
2022-10-03T13:21:45.863Z,17.55
2022-10-03T13:24:32.354Z,17.32
2022-10-03T13:27:30.472Z,17.10
2022-10-03T13:30:06.416Z,17.01
2022-10-03T13:32:37.833Z,17.00
2022-10-03T13:35:38.082Z,17.02
2022-10-03T13:38:27.298Z,17.12
2022-10-03T13:41:08.053Z,17.24
2022-10-03T13:43:40.495Z,17.35
2022-10-03T13:46:15.765Z,17.45
2022-10-03T13:48:55.064Z,17.54
2022-10-03T13:51:33.025Z,17.56
2022-10-03T13:54:07.939Z,17.58
2022-10-03T13:56:51.897Z,17.64
2022-10-03T13:59:39.315Z,17.67
2022-10-03T14:02:27.636Z,17.65
2022-10-03T14:05:20.168Z,17.53
2022-10-03T14:08:00.126Z,17.55
2022-10-03T14:11:00.898Z,17.58
2022-10-03T14:13:43.649Z,17.59
2022-10-03T14:16:20.418Z,17.55
2022-10-03T14:18:57.296Z,17.44
2022-10-03T14:21:38.637Z,17.30
2022-10-03T14:24:21.397Z,17.18
2022-10-03T14:26:56.481Z,17.17
2022-10-03T14:29:38.635Z,17.05
2022-10-03T14:32:42.471Z,16.92
2022-10-03T14:35:13.798Z,16.91
2022-10-03T14:37:47.570Z,16.90
2022-10-03T14:40:23.852Z,16.91
2022-10-03T14:43:07.505Z,16.90
2022-10-03T14:45:44.846Z,16.89
2022-10-03T14:48:18.854Z,16.90
2022-10-03T14:50:52.338Z,16.97
2022-10-03T14:53:25.468Z,17.03
2022-10-03T14:56:00.811Z,17.02
2022-10-03T14:58:33.542Z,17.10
2022-10-03T15:01:16.084Z,17.21
2022-10-03T15:03:53.500Z,17.30
2022-10-03T15:06:34.195Z,17.38
2022-10-03T15:09:11.692Z,17.34
2022-10-03T15:11:49.040Z,17.29
2022-10-03T15:14:18.121Z,17.16
2022-10-03T15:16:55.233Z,16.95
2022-10-03T15:19:33.893Z,16.84
2022-10-03T15:22:13.754Z,16.81
2022-10-03T15:24:43.035Z,16.81
2022-10-03T15:27:21.745Z,16.78
2022-10-03T15:29:55.444Z,16.71
2022-10-03T15:32:35.560Z,16.57
2022-10-03T15:35:04.930Z,16.45
2022-10-03T15:37:41.798Z,16.43
2022-10-03T15:40:23.368Z,16.43
2022-10-03T15:43:07.988Z,16.31
2022-10-03T15:45:38.812Z,16.21
2022-10-03T15:48:14.477Z,16.25
2022-10-03T15:50:45.907Z,16.32
2022-10-03T15:53:37.580Z,16.34
2022-10-03T15:56:12.298Z,16.33
2022-10-03T15:58:49.538Z,16.32
2022-10-03T16:01:22.580Z,16.25
2022-10-03T16:03:55.337Z,16.09
2022-10-03T16:06:32.269Z,15.97
2022-10-03T16:09:09.789Z,15.93
2022-10-03T16:11:48.793Z,15.92
2022-10-03T16:14:24.882Z,15.91
2022-10-03T16:16:58.023Z,15.90
2022-10-03T16:19:31.430Z,15.88
2022-10-03T16:22:18.582Z,15.86
2022-10-03T16:24:59.382Z,15.82
2022-10-03T16:27:31.235Z,15.75
2022-10-03T16:30:19.079Z,15.71
2022-10-03T16:32:54.158Z,15.67
2022-10-03T16:35:34.946Z,15.63
2022-10-03T16:38:09.751Z,15.53
2022-10-03T16:40:38.950Z,15.43
2022-10-03T16:43:11.611Z,15.36
2022-10-03T16:45:45.674Z,15.33
2022-10-03T16:48:39.146Z,15.28
2022-10-03T16:51:18.278Z,15.24
2022-10-03T16:53:49.256Z,15.20
2022-10-03T16:56:20.690Z,15.15
2022-10-03T16:58:53.534Z,15.11
2022-10-03T17:01:40.805Z,15.10
2022-10-03T17:04:21.990Z,15.08
2022-10-03T17:06:54.969Z,15.04
2022-10-03T17:09:34.192Z,15.03
2022-10-03T17:12:05.564Z,14.98
2022-10-03T17:14:39.042Z,14.94
2022-10-03T17:17:17.165Z,14.92
2022-10-03T17:19:51.185Z,14.88
2022-10-03T17:22:23.948Z,14.84
2022-10-03T17:24:56.089Z,14.83
2022-10-03T17:27:31.198Z,14.82
2022-10-03T17:30:04.338Z,14.80
2022-10-03T17:32:42.128Z,14.70
2022-10-03T17:35:16.578Z,14.66
2022-10-03T17:38:37.052Z,14.61
2022-10-03T17:41:15.166Z,14.57
2022-10-03T17:43:48.713Z,14.50
2022-10-03T17:46:24.554Z,14.37
2022-10-03T17:49:02.617Z,14.31
2022-10-03T17:51:36.681Z,14.29
2022-10-03T17:54:15.122Z,14.26
2022-10-03T17:56:49.401Z,14.17
2022-10-03T17:59:28.067Z,14.17
2022-10-03T18:02:02.026Z,14.18
2022-10-03T18:04:34.901Z,14.18
2022-10-03T18:07:08.038Z,14.13
2022-10-03T18:09:47.817Z,14.02
2022-10-03T18:12:23.476Z,13.86
2022-10-03T18:15:35.627Z,13.72
2022-10-03T18:18:21.264Z,13.67
2022-10-03T18:20:52.063Z,13.58
2022-10-03T18:23:53.232Z,13.57
2022-10-03T18:26:28.154Z,13.45
2022-10-03T18:29:11.814Z,13.41
2022-10-03T18:31:45.411Z,13.37
2022-10-03T18:34:21.045Z,13.35
2022-10-03T18:36:52.770Z,13.37
2022-10-03T18:39:25.388Z,13.39
2022-10-03T18:41:59.455Z,13.37
2022-10-03T18:44:30.596Z,13.35
2022-10-03T18:47:13.195Z,13.35
2022-10-03T18:49:47.968Z,13.41
2022-10-03T18:52:21.969Z,13.45
2022-10-03T18:54:59.381Z,13.47
2022-10-03T18:57:37.364Z,13.52
2022-10-03T19:00:09.284Z,13.50
2022-10-03T19:02:44.014Z,13.45
2022-10-03T19:05:19.136Z,13.43
2022-10-03T19:07:55.019Z,13.37
2022-10-03T19:10:35.023Z,13.31
2022-10-03T19:13:16.600Z,13.27
2022-10-03T19:16:12.788Z,13.28
2022-10-03T19:18:44.490Z,13.35
2022-10-03T19:21:20.094Z,13.34
2022-10-03T19:23:53.165Z,13.30
2022-10-03T19:26:26.888Z,13.25
2022-10-03T19:29:05.171Z,13.27
2022-10-03T19:31:40.468Z,13.30
2022-10-03T19:34:16.969Z,13.30
2022-10-03T19:36:49.459Z,13.26
2022-10-03T19:39:19.508Z,13.30
2022-10-03T19:41:53.124Z,13.33
2022-10-03T19:44:26.962Z,13.33
2022-10-03T19:47:05.417Z,13.37
2022-10-03T19:49:46.459Z,13.38
2022-10-03T19:52:22.056Z,13.37
2022-10-03T19:54:57.819Z,13.33
2022-10-03T19:57:31.134Z,13.31
2022-10-03T20:00:04.587Z,13.32
2022-10-03T20:02:33.790Z,13.34
2022-10-03T20:05:03.736Z,13.34
2022-10-03T20:07:46.568Z,13.37
2022-10-03T20:10:34.095Z,13.37
2022-10-03T20:13:03.981Z,13.35
2022-10-03T20:15:43.897Z,13.35
2022-10-03T20:18:22.566Z,13.27
2022-10-03T20:20:54.361Z,13.19
2022-10-03T20:23:24.582Z,13.07
2022-10-03T20:26:02.056Z,12.96
2022-10-03T20:28:51.220Z,12.95
2022-10-03T20:31:27.128Z,13.06
2022-10-03T20:33:57.962Z,13.14
2022-10-03T20:36:29.543Z,13.15
2022-10-03T20:39:05.763Z,13.08
2022-10-03T20:41:48.660Z,12.96
2022-10-03T20:44:28.275Z,12.95
2022-10-03T20:47:05.308Z,13.03
2022-10-03T20:49:38.459Z,13.02
2022-10-03T20:52:09.076Z,13.03
2022-10-03T20:54:48.427Z,13.05
2022-10-03T20:57:19.829Z,13.12
2022-10-03T20:59:50.438Z,13.17
2022-10-03T21:02:30.521Z,13.21
2022-10-03T21:05:03.989Z,13.24
2022-10-03T21:07:39.613Z,13.19
2022-10-03T21:10:19.352Z,13.09
2022-10-03T21:12:50.420Z,13.02
2022-10-03T21:15:30.139Z,12.96
2022-10-03T21:18:00.455Z,12.87
2022-10-03T21:20:35.737Z,12.91
2022-10-03T21:23:14.275Z,12.98
2022-10-03T21:25:45.148Z,13.00
2022-10-03T21:28:26.564Z,12.99
2022-10-03T21:31:16.335Z,12.98
2022-10-03T21:33:54.873Z,12.96
2022-10-03T21:36:30.599Z,12.84
2022-10-03T21:39:09.373Z,12.75
2022-10-03T21:41:46.960Z,12.78
2022-10-03T21:44:29.105Z,12.68
2022-10-03T21:47:06.175Z,12.61
2022-10-03T21:49:48.041Z,12.68
2022-10-03T21:52:32.393Z,12.69
2022-10-03T21:55:16.941Z,12.55
2022-10-03T21:57:55.410Z,12.46
2022-10-03T22:00:28.910Z,12.35
2022-10-03T22:03:06.309Z,12.27
2022-10-03T22:05:46.588Z,12.16
2022-10-03T22:08:21.482Z,12.13
2022-10-03T22:11:04.554Z,12.09
2022-10-03T22:13:38.171Z,11.95
2022-10-03T22:16:15.172Z,11.82
2022-10-03T22:19:09.818Z,11.74
2022-10-03T22:21:46.432Z,11.66
2022-10-03T22:24:23.451Z,11.60
2022-10-03T22:27:00.383Z,11.59
2022-10-03T22:29:36.234Z,11.62
2022-10-03T22:32:13.232Z,11.62
2022-10-03T22:34:50.228Z,11.61
2022-10-03T22:37:20.025Z,11.59
2022-10-03T22:39:48.472Z,11.58
2022-10-03T22:42:17.941Z,11.58
2022-10-03T22:44:51.212Z,11.54
2022-10-03T22:47:23.767Z,11.50
2022-10-03T22:49:58.869Z,11.43
2022-10-03T22:52:32.987Z,11.42
2022-10-03T22:55:03.802Z,11.41
2022-10-03T22:57:36.102Z,11.37
2022-10-03T23:00:08.434Z,11.33
2022-10-03T23:02:42.703Z,11.27
2022-10-03T23:05:17.375Z,11.23
2022-10-03T23:08:00.599Z,11.22
2022-10-03T23:10:42.717Z,11.17
2022-10-03T23:13:17.644Z,11.10
2022-10-03T23:15:51.132Z,11.06
2022-10-03T23:18:36.903Z,11.04
2022-10-03T23:21:07.940Z,11.03
2022-10-03T23:23:51.177Z,11.08
2022-10-03T23:26:38.093Z,11.15
2022-10-03T23:29:08.548Z,11.18
2022-10-03T23:31:55.658Z,11.26
2022-10-03T23:34:47.156Z,11.29
2022-10-03T23:37:38.441Z,11.30
2022-10-03T23:40:42.094Z,11.25
2022-10-03T23:43:34.707Z,11.23
2022-10-03T23:46:06.371Z,11.13
2022-10-03T23:48:44.394Z,11.06
2022-10-03T23:51:15.954Z,11.03
2022-10-03T23:53:47.551Z,11.01
2022-10-03T23:56:31.738Z,10.98
2022-10-03T23:59:21.349Z,10.88
